Search for airport 
image banner adimage banner ad
image banner ad

SSKS - Cachoeira do Sul Airport

Located in Cachoeira Do Sul, Brazil

ICAO - SSKS, IATA - QDB

Data provided by Airmate  

General information

Coordinates: S30°0'8" W52°56'25"
Elevation is 252 feet MSL.
Magnetic variation is -15° East
Rated:
View ratings: [VIEW]


View others Airports in Rio Grande do Sul

Operational data

Open for public use
Current time UTC:
Current local time:
Weather at : SBSM - Santa Maria Airport ( 79 km )
METAR: SBSM 031800Z 04003KT 360V090 CAVOK 28/15 Q1023
TAF: TAF SBSM 031500Z 0318/0406 08007KT CAVOK TX28/0318Z TN15/0406Z RMK PEU
View NOTAMs / SUP AIP / TFR affecting this airport [VIEW]
Communications frequencies: [VIEW]

Runways:

RWY identifierQFULength (ft)Width (ft)SurfaceLDA (ft)
12334660ASP
30334660ASP

Airport contact information

Address: Cachoeira Do Sul Brazil

Satellite view of SSKS